Time;durP1;ratioP1;P1;durP2;ratioP2;P2;SDS_P1;SDS_P2;PMS_P1;PMS_P2;Temp;Humidity;BMP_temperature;BMP_pressure;BME280_temperature;BME280_humidity;BME280_pressure;Samples;Min_cycle;Max_cycle;Signal;HPM_P1;HPM_P2
2023/10/22 00:01:52;;;;;;;1.70;0.80;;;15.00;74.70;;;;;;5052265;28;20464;-89
2023/10/22 00:04:20;;;;;;;3.27;1.37;;;15.10;73.50;;;;;;5068518;28;20506;-86
2023/10/22 00:06:50;;;;;;;1.63;0.80;;;15.10;73.50;;;;;;5052893;28;20431;-87
2023/10/22 00:09:18;;;;;;;1.30;0.70;;;15.00;73.50;;;;;;5052270;28;20465;-87
2023/10/22 00:11:47;;;;;;;1.83;0.70;;;15.00;73.60;;;;;;5069453;28;20439;-89
2023/10/22 00:14:15;;;;;;;1.73;0.93;;;15.10;73.80;;;;;;5052074;28;20468;-91
2023/10/22 00:16:43;;;;;;;2.30;1.03;;;15.10;73.70;;;;;;5052852;28;20436;-87
2023/10/22 00:19:12;;;;;;;4.50;1.10;;;15.00;73.70;;;;;;5052571;28;20493;-87
2023/10/22 00:21:40;;;;;;;1.50;0.83;;;15.00;73.80;;;;;;5069316;28;20443;-84
2023/10/22 00:24:10;;;;;;;1.27;0.77;;;15.00;73.90;;;;;;5052024;28;20433;-85
2023/10/22 00:26:39;;;;;;;2.10;0.77;;;15.10;73.90;;;;;;5052773;28;20472;-86
2023/10/22 00:29:08;;;;;;;2.03;0.70;;;15.00;73.90;;;;;;5051728;28;20462;-84
2023/10/22 00:31:37;;;;;;;1.93;0.60;;;15.10;74.00;;;;;;5069286;28;20434;-86
2023/10/22 00:34:06;;;;;;;3.03;0.80;;;15.00;74.00;;;;;;5051591;28;20445;-87
2023/10/22 00:36:35;;;;;;;1.30;0.60;;;15.00;74.00;;;;;;5052439;28;20707;-87
2023/10/22 00:39:03;;;;;;;2.07;0.70;;;15.00;74.20;;;;;;5051769;28;20932;-87
2023/10/22 00:41:34;;;;;;;1.93;0.70;;;15.00;74.20;;;;;;5055477;28;20421;-87
2023/10/22 00:44:02;;;;;;;2.23;0.60;;;15.00;74.20;;;;;;5055987;28;20674;-88
2023/10/22 00:46:31;;;;;;;1.20;0.70;;;15.00;74.30;;;;;;5056329;28;20450;-86
2023/10/22 00:49:00;;;;;;;1.90;0.70;;;15.00;74.30;;;;;;5072545;28;20461;-86
2023/10/22 00:51:28;;;;;;;2.00;0.80;;;15.00;74.30;;;;;;5056733;28;20424;-87
2023/10/22 00:53:58;;;;;;;1.63;0.60;;;15.00;74.40;;;;;;5072376;28;20986;-86
2023/10/22 00:56:27;;;;;;;1.90;1.10;;;15.00;74.30;;;;;;5056171;28;20452;-85
2023/10/22 00:58:57;;;;;;;2.40;0.90;;;15.00;75.20;;;;;;5055867;28;20436;-92
2023/10/22 01:01:25;;;;;;;1.07;0.60;;;15.00;74.40;;;;;;5068823;28;20548;-85
2023/10/22 01:03:53;;;;;;;1.27;0.60;;;15.00;74.50;;;;;;5093764;28;20456;-84
2023/10/22 01:06:22;;;;;;;1.00;0.60;;;15.00;74.50;;;;;;5092923;28;20867;-88
2023/10/22 01:08:51;;;;;;;1.13;0.80;;;15.00;74.50;;;;;;5093115;28;20823;-85
2023/10/22 01:11:19;;;;;;;1.80;0.70;;;15.00;74.60;;;;;;5092340;28;20482;-86
2023/10/22 01:13:47;;;;;;;2.03;0.60;;;15.00;74.60;;;;;;5076241;28;20440;-86
2023/10/22 01:16:17;;;;;;;1.10;0.70;;;15.00;74.60;;;;;;5091910;28;20476;-86
2023/10/22 01:18:45;;;;;;;1.10;0.60;;;15.00;74.60;;;;;;5075714;28;20464;-86
2023/10/22 01:21:14;;;;;;;1.80;0.57;;;15.00;74.70;;;;;;5092043;28;20465;-89
2023/10/22 01:23:44;;;;;;;2.03;0.50;;;15.00;74.70;;;;;;5075844;28;20419;-86
2023/10/22 01:26:14;;;;;;;2.87;0.77;;;15.00;76.10;;;;;;5074999;28;20548;-86
2023/10/22 01:28:42;;;;;;;1.83;0.80;;;15.00;74.80;;;;;;5076189;28;20435;-87
2023/10/22 01:31:16;;;;;;;1.57;0.60;;;15.00;76.20;;;;;;5074808;28;20481;-89
2023/10/22 01:33:44;;;;;;;1.13;0.60;;;15.00;76.00;;;;;;5092675;28;20432;-89
2023/10/22 01:36:13;;;;;;;1.50;0.60;;;15.00;74.80;;;;;;5091719;28;20505;-87
2023/10/22 01:38:42;;;;;;;1.50;0.60;;;15.00;74.80;;;;;;5092731;28;20849;-87
2023/10/22 01:41:11;;;;;;;1.60;0.57;;;15.00;74.90;;;;;;5075422;28;20679;-86
2023/10/22 01:43:40;;;;;;;1.43;0.50;;;15.00;74.90;;;;;;5075924;28;20444;-84
2023/10/22 01:46:08;;;;;;;2.33;0.60;;;15.00;74.90;;;;;;5091729;28;20471;-83
2023/10/22 01:48:38;;;;;;;1.00;0.50;;;15.00;74.90;;;;;;5076048;28;20546;-88
2023/10/22 01:51:07;;;;;;;2.30;0.60;;;15.00;74.90;;;;;;5074912;28;20533;-86
2023/10/22 01:53:35;;;;;;;1.40;0.63;;;15.00;75.00;;;;;;5093193;28;20521;-86
2023/10/22 01:56:04;;;;;;;1.27;0.50;;;15.00;75.10;;;;;;5092488;28;20545;-88
2023/10/22 01:58:34;;;;;;;1.80;0.83;;;14.90;75.10;;;;;;5076286;28;20429;-92
2023/10/22 02:01:03;;;;;;;2.90;0.50;;;15.00;75.20;;;;;;5092613;28;20467;-88
2023/10/22 02:03:35;;;;;;;1.90;0.60;;;14.90;75.20;;;;;;5092853;28;20500;-88
2023/10/22 02:06:11;;;;;;;1.70;0.67;;;14.90;75.20;;;;;;5092628;28;20545;-88
2023/10/22 02:08:40;;;;;;;1.10;0.50;;;14.90;75.20;;;;;;5093643;28;20781;-91
2023/10/22 02:11:09;;;;;;;1.20;0.60;;;14.90;75.30;;;;;;5076054;28;20565;-91
2023/10/22 02:13:39;;;;;;;1.13;0.40;;;15.00;75.50;;;;;;5076547;28;20471;-90
2023/10/22 02:16:08;;;;;;;1.60;0.50;;;14.90;75.50;;;;;;5092526;28;20469;-91
2023/10/22 02:18:36;;;;;;;2.73;1.50;;;14.90;75.50;;;;;;5093039;28;20811;-91
2023/10/22 02:21:05;;;;;;;1.67;0.40;;;14.90;75.60;;;;;;5075591;28;20471;-90
2023/10/22 02:23:34;;;;;;;1.47;0.50;;;14.90;75.60;;;;;;5092439;28;20443;-90
2023/10/22 02:26:04;;;;;;;1.73;0.40;;;14.90;75.70;;;;;;5074095;28;21068;-87
2023/10/22 02:28:32;;;;;;;1.00;0.50;;;14.90;75.60;;;;;;5091652;28;20425;-86
2023/10/22 02:31:04;;;;;;;1.40;0.67;;;14.90;75.80;;;;;;5090675;28;20473;-84
2023/10/22 02:33:33;;;;;;;1.83;0.50;;;14.90;75.90;;;;;;5091794;28;20763;-85
2023/10/22 02:36:04;;;;;;;1.03;0.43;;;14.90;75.80;;;;;;5073797;28;20482;-84
2023/10/22 02:38:32;;;;;;;1.00;0.43;;;14.90;75.80;;;;;;5074771;28;20453;-87
2023/10/22 02:41:02;;;;;;;1.20;0.43;;;14.90;75.90;;;;;;5074015;28;20462;-86
2023/10/22 02:43:30;;;;;;;1.30;0.50;;;14.90;76.10;;;;;;5091332;28;20428;-89
2023/10/22 02:45:58;;;;;;;1.40;0.73;;;14.90;75.90;;;;;;5090682;28;20472;-85
2023/10/22 02:48:28;;;;;;;2.40;0.70;;;14.90;76.10;;;;;;5091237;28;20428;-84
2023/10/22 02:50:56;;;;;;;1.27;0.60;;;14.90;76.30;;;;;;5073661;28;20515;-88
2023/10/22 02:53:25;;;;;;;1.00;0.50;;;14.90;76.30;;;;;;5093171;28;20435;-87
2023/10/22 02:56:01;;;;;;;1.30;0.63;;;14.90;76.30;;;;;;5074961;28;20468;-86
2023/10/22 02:58:29;;;;;;;1.10;0.43;;;14.90;76.40;;;;;;5058244;28;20450;-87
2023/10/22 03:01:04;;;;;;;1.00;0.60;;;14.90;76.50;;;;;;5073925;28;20540;-90
2023/10/22 03:03:39;;;;;;;1.40;0.50;;;14.90;76.80;;;;;;5073459;28;20440;-85
2023/10/22 03:06:09;;;;;;;2.83;0.50;;;14.90;76.50;;;;;;5073215;28;20471;-88
2023/10/22 03:08:39;;;;;;;1.30;0.50;;;14.90;76.80;;;;;;5073975;28;20435;-88
2023/10/22 03:11:14;;;;;;;1.63;0.47;;;14.90;76.70;;;;;;5072859;28;20532;-86
2023/10/22 03:13:42;;;;;;;2.30;0.43;;;14.90;76.40;;;;;;5073929;28;20425;-85
2023/10/22 03:16:14;;;;;;;1.10;0.60;;;14.90;76.70;;;;;;5072932;28;20471;-84
2023/10/22 03:18:45;;;;;;;1.30;0.50;;;14.90;76.60;;;;;;5073811;28;20432;-86
2023/10/22 03:21:14;;;;;;;1.30;0.50;;;14.90;76.80;;;;;;5073342;28;20474;-85
2023/10/22 03:23:45;;;;;;;1.10;0.60;;;14.90;76.60;;;;;;5073665;28;20420;-88
2023/10/22 03:26:16;;;;;;;0.90;0.50;;;14.90;76.50;;;;;;5072758;28;20498;-84
2023/10/22 03:28:45;;;;;;;0.90;0.43;;;14.90;76.60;;;;;;5073287;28;20929;-88
2023/10/22 03:31:14;;;;;;;0.90;0.57;;;14.90;76.70;;;;;;5072907;28;20568;-85
2023/10/22 03:33:44;;;;;;;0.90;0.50;;;14.90;76.50;;;;;;5073301;28;20490;-88
2023/10/22 03:36:14;;;;;;;1.30;0.40;;;14.90;76.70;;;;;;5072391;28;20476;-90
2023/10/22 03:38:43;;;;;;;1.20;0.40;;;14.90;76.90;;;;;;5073514;28;20470;-90
2023/10/22 03:41:12;;;;;;;1.10;0.40;;;14.90;77.90;;;;;;5072862;28;20472;-89
2023/10/22 03:43:40;;;;;;;2.57;0.50;;;14.90;76.90;;;;;;5073055;28;20433;-87
2023/10/22 03:46:09;;;;;;;1.00;0.73;;;14.90;76.60;;;;;;5072790;28;20471;-87
2023/10/22 03:48:38;;;;;;;1.50;0.60;;;14.90;76.50;;;;;;5074345;28;20428;-85
2023/10/22 03:51:09;;;;;;;0.90;0.43;;;14.90;76.80;;;;;;5091139;28;20477;-89
2023/10/22 03:53:41;;;;;;;1.17;0.40;;;14.90;77.20;;;;;;5073088;28;20420;-91
2023/10/22 03:56:09;;;;;;;1.17;0.50;;;14.90;76.80;;;;;;5072181;28;20494;-89
2023/10/22 03:58:38;;;;;;;1.50;1.10;;;14.90;76.90;;;;;;5072983;28;20514;-87
2023/10/22 04:01:07;;;;;;;1.10;0.63;;;14.90;76.80;;;;;;5072608;28;20488;-88
2023/10/22 04:03:35;;;;;;;1.20;0.60;;;14.80;76.70;;;;;;5073170;28;20439;-87
2023/10/22 04:06:04;;;;;;;1.50;0.40;;;14.90;77.10;;;;;;5072236;28;20480;-86
2023/10/22 04:08:34;;;;;;;1.00;0.50;;;14.90;76.80;;;;;;5073055;28;20755;-87
2023/10/22 04:11:04;;;;;;;1.17;0.50;;;14.80;76.30;;;;;;5072071;28;20475;-87
2023/10/22 04:13:32;;;;;;;1.27;0.83;;;14.90;76.60;;;;;;5073273;28;20837;-86
2023/10/22 04:16:00;;;;;;;1.10;0.50;;;14.90;76.50;;;;;;5072391;28;20475;-87
2023/10/22 04:18:29;;;;;;;1.17;0.53;;;14.90;76.70;;;;;;5073115;28;20988;-88
2023/10/22 04:20:58;;;;;;;0.90;0.30;;;14.90;76.50;;;;;;5071900;28;20464;-88
2023/10/22 04:23:26;;;;;;;1.00;0.57;;;14.90;76.80;;;;;;5072368;28;20463;-87
2023/10/22 04:25:56;;;;;;;0.90;0.40;;;14.80;76.60;;;;;;5071903;28;20464;-87
2023/10/22 04:28:24;;;;;;;1.20;0.50;;;14.90;76.60;;;;;;5072668;28;20453;-86
2023/10/22 04:30:55;;;;;;;0.90;0.40;;;14.90;76.70;;;;;;5063831;28;20562;-87
2023/10/22 04:33:24;;;;;;;1.00;0.40;;;14.90;76.80;;;;;;5072987;28;20416;-86
2023/10/22 04:35:53;;;;;;;1.23;0.50;;;14.80;76.50;;;;;;5055174;28;20993;-87
2023/10/22 04:38:21;;;;;;;0.80;0.30;;;14.80;76.50;;;;;;5072345;28;20431;-89
2023/10/22 04:40:50;;;;;;;1.23;0.40;;;14.80;76.50;;;;;;5071987;28;20476;-89
2023/10/22 04:43:21;;;;;;;0.93;0.40;;;14.80;76.60;;;;;;5072628;28;20506;-86
2023/10/22 04:45:50;;;;;;;0.90;0.40;;;14.90;76.60;;;;;;5071675;28;20475;-88
2023/10/22 04:48:19;;;;;;;0.97;0.47;;;14.80;76.70;;;;;;5072952;28;20430;-86
2023/10/22 04:50:47;;;;;;;2.00;0.40;;;14.80;76.60;;;;;;5072157;28;20482;-91
2023/10/22 04:53:16;;;;;;;0.90;0.40;;;14.80;76.80;;;;;;5072643;28;20517;-85
2023/10/22 04:55:44;;;;;;;1.23;0.30;;;14.80;76.80;;;;;;5071718;28;20463;-84
2023/10/22 04:58:12;;;;;;;0.83;0.40;;;14.80;76.60;;;;;;5073264;28;20797;-84
2023/10/22 05:00:42;;;;;;;0.87;0.40;;;14.80;76.90;;;;;;5072197;28;20469;-86
2023/10/22 05:03:10;;;;;;;0.80;0.30;;;14.80;77.00;;;;;;5073332;28;20441;-88
2023/10/22 05:05:38;;;;;;;1.13;0.50;;;14.80;76.80;;;;;;5072325;28;20487;-86
2023/10/22 05:08:07;;;;;;;1.03;0.47;;;14.80;76.80;;;;;;5073080;28;20475;-88
2023/10/22 05:10:38;;;;;;;0.93;0.43;;;14.80;76.60;;;;;;5072532;28;20460;-90
2023/10/22 05:13:07;;;;;;;1.20;0.50;;;14.80;77.00;;;;;;5073036;28;20567;-88
2023/10/22 05:15:35;;;;;;;0.90;0.40;;;14.80;76.50;;;;;;5072433;28;20525;-93
2023/10/22 05:18:07;;;;;;;1.10;0.40;;;14.80;76.80;;;;;;5073044;28;20501;-91
2023/10/22 05:20:35;;;;;;;0.83;0.40;;;14.80;76.80;;;;;;5072334;28;20463;-89
2023/10/22 05:23:04;;;;;;;1.30;0.50;;;14.80;76.50;;;;;;5072684;28;20478;-87
2023/10/22 05:25:32;;;;;;;0.97;0.40;;;14.80;76.60;;;;;;5071331;28;20472;-91
2023/10/22 05:28:01;;;;;;;0.90;0.40;;;14.80;76.40;;;;;;5075665;28;20418;-88
2023/10/22 05:30:31;;;;;;;1.00;0.50;;;14.80;76.20;;;;;;5075215;28;21031;-89
2023/10/22 05:33:01;;;;;;;1.10;0.40;;;14.80;76.00;;;;;;5075716;28;20487;-87
2023/10/22 05:35:35;;;;;;;0.80;0.30;;;14.80;76.30;;;;;;5075352;28;20488;-89
2023/10/22 05:38:04;;;;;;;1.47;0.47;;;14.80;76.00;;;;;;5076229;28;20416;-89
2023/10/22 05:40:37;;;;;;;1.10;0.50;;;14.80;75.80;;;;;;5075265;28;20983;-88
2023/10/22 05:43:05;;;;;;;0.90;0.40;;;14.80;75.70;;;;;;5076081;28;20501;-86
2023/10/22 05:45:33;;;;;;;0.90;0.40;;;14.80;75.60;;;;;;5075328;28;20474;-87
2023/10/22 05:48:02;;;;;;;0.83;0.40;;;14.90;76.80;;;;;;5073889;28;20479;-90
2023/10/22 05:50:32;;;;;;;0.80;0.50;;;14.80;75.40;;;;;;5075937;28;20468;-89
2023/10/22 05:53:00;;;;;;;1.00;0.33;;;14.90;75.70;;;;;;5076855;28;20461;-84
2023/10/22 05:55:28;;;;;;;1.00;0.37;;;14.80;75.60;;;;;;5075943;28;20684;-84
2023/10/22 05:57:56;;;;;;;1.10;0.40;;;14.80;75.50;;;;;;5076296;28;20448;-86
2023/10/22 06:00:25;;;;;;;0.83;0.50;;;14.80;75.50;;;;;;5075046;28;20464;-91
2023/10/22 06:02:52;;;;;;;0.87;0.33;;;14.80;75.70;;;;;;5075329;28;20437;-88
2023/10/22 06:05:20;;;;;;;0.93;0.30;;;14.80;75.90;;;;;;5074586;28;20489;-90
2023/10/22 06:07:53;;;;;;;1.23;0.40;;;14.80;75.90;;;;;;5075191;28;20417;-87
2023/10/22 06:10:22;;;;;;;0.80;0.40;;;14.80;75.90;;;;;;5074655;28;20796;-87
2023/10/22 06:12:50;;;;;;;0.80;0.30;;;14.80;75.80;;;;;;5075291;28;20457;-86
2023/10/22 06:15:18;;;;;;;0.80;0.30;;;14.80;75.80;;;;;;5074519;28;20468;-86
2023/10/22 06:17:47;;;;;;;0.80;0.40;;;14.80;75.80;;;;;;5075330;28;20467;-89
2023/10/22 06:20:15;;;;;;;1.20;0.50;;;14.80;75.80;;;;;;5074463;28;20465;-87
2023/10/22 06:22:46;;;;;;;0.90;0.40;;;14.80;75.90;;;;;;5074879;28;20424;-85
2023/10/22 06:25:16;;;;;;;1.40;0.50;;;14.80;75.90;;;;;;5074055;28;20472;-88
2023/10/22 06:27:44;;;;;;;2.00;0.50;;;14.80;75.80;;;;;;5075124;28;20445;-89
2023/10/22 06:30:13;;;;;;;0.83;0.40;;;14.80;75.70;;;;;;5074416;28;20460;-88
2023/10/22 06:32:41;;;;;;;1.73;0.30;;;14.80;75.80;;;;;;5074979;28;20530;-87
2023/10/22 06:35:11;;;;;;;1.07;0.40;;;14.80;75.70;;;;;;5073954;28;20471;-89
2023/10/22 06:37:39;;;;;;;1.10;0.40;;;14.80;75.90;;;;;;5073952;28;20530;-89
2023/10/22 06:40:09;;;;;;;1.07;0.40;;;14.80;75.70;;;;;;5073868;28;20461;-88
2023/10/22 06:42:40;;;;;;;1.10;0.40;;;14.80;75.60;;;;;;5074822;28;20416;-86
2023/10/22 06:45:09;;;;;;;0.70;0.30;;;14.80;75.70;;;;;;5074066;28;20490;-87
2023/10/22 06:47:37;;;;;;;1.30;0.50;;;14.80;75.70;;;;;;5074634;28;20447;-85
2023/10/22 06:50:07;;;;;;;0.70;0.30;;;14.80;75.80;;;;;;5073687;28;21015;-88
2023/10/22 06:52:36;;;;;;;1.00;0.40;;;14.80;75.70;;;;;;5074494;28;20459;-89
2023/10/22 06:55:05;;;;;;;0.90;0.40;;;14.80;75.70;;;;;;5073732;28;20502;-86
2023/10/22 06:57:33;;;;;;;0.80;0.30;;;14.80;75.60;;;;;;5074256;28;20941;-83
2023/10/22 07:00:07;;;;;;;0.80;0.30;;;14.80;75.70;;;;;;5057192;28;20464;-87
2023/10/22 07:02:36;;;;;;;1.00;0.47;;;14.80;75.60;;;;;;5074784;28;20424;-89
2023/10/22 07:05:07;;;;;;;0.83;0.40;;;14.80;75.80;;;;;;5073728;28;20492;-88
2023/10/22 07:07:35;;;;;;;0.90;0.33;;;14.80;75.80;;;;;;5074453;28;20416;-87
2023/10/22 07:10:04;;;;;;;0.80;0.40;;;14.80;75.70;;;;;;5073325;28;20455;-89
2023/10/22 07:12:32;;;;;;;1.23;0.70;;;14.80;75.60;;;;;;5073833;28;20444;-89
2023/10/22 07:15:00;;;;;;;1.17;0.30;;;14.80;75.70;;;;;;5070467;28;20469;-89
2023/10/22 07:17:30;;;;;;;1.00;0.40;;;14.80;75.70;;;;;;5074003;28;20947;-86
2023/10/22 07:19:58;;;;;;;0.70;0.30;;;14.80;75.60;;;;;;5073393;28;20483;-88
2023/10/22 07:22:27;;;;;;;0.70;0.40;;;14.80;75.70;;;;;;5074028;28;20436;-87
2023/10/22 07:24:55;;;;;;;0.90;0.40;;;14.80;75.70;;;;;;5073418;28;20455;-86
2023/10/22 07:27:23;;;;;;;1.00;0.50;;;14.80;75.90;;;;;;5074125;28;20431;-86
2023/10/22 07:29:51;;;;;;;1.53;0.30;;;14.80;75.80;;;;;;5073528;28;20519;-87
2023/10/22 07:32:20;;;;;;;1.00;0.30;;;14.70;76.80;;;;;;5073947;28;20459;-84
2023/10/22 07:34:49;;;;;;;0.90;0.57;;;14.80;75.70;;;;;;5073288;28;20468;-85
2023/10/22 07:37:18;;;;;;;0.80;0.40;;;14.80;76.20;;;;;;5073393;28;20913;-87
2023/10/22 07:39:46;;;;;;;1.33;0.47;;;14.80;75.70;;;;;;5073551;28;20474;-86
2023/10/22 07:42:14;;;;;;;1.23;0.40;;;14.80;76.40;;;;;;5073581;28;20433;-88
2023/10/22 07:44:43;;;;;;;1.00;0.40;;;14.70;75.80;;;;;;5073205;28;20468;-87
2023/10/22 07:47:11;;;;;;;0.90;0.40;;;14.70;75.70;;;;;;5074976;28;20438;-89
2023/10/22 07:49:40;;;;;;;0.80;0.40;;;14.80;75.60;;;;;;5074419;28;20910;-86
2023/10/22 07:52:09;;;;;;;0.77;0.30;;;14.80;75.70;;;;;;5075791;28;20504;-87
2023/10/22 07:54:38;;;;;;;0.97;0.43;;;14.80;75.70;;;;;;5075030;28;20460;-89
2023/10/22 07:57:06;;;;;;;0.80;0.40;;;14.80;75.70;;;;;;5075354;28;20471;-88
2023/10/22 07:59:34;;;;;;;0.90;0.33;;;14.70;75.60;;;;;;5075960;28;20452;-89
2023/10/22 08:02:03;;;;;;;1.40;0.40;;;14.70;75.50;;;;;;5076229;28;20431;-92
2023/10/22 08:04:31;;;;;;;1.27;0.30;;;14.80;75.60;;;;;;5075940;28;20461;-89
2023/10/22 08:06:59;;;;;;;1.97;0.50;;;14.80;75.60;;;;;;5077027;28;20842;-88
2023/10/22 08:09:29;;;;;;;1.17;0.50;;;14.80;75.60;;;;;;5076181;28;20453;-84
2023/10/22 08:11:58;;;;;;;1.27;0.43;;;14.70;75.60;;;;;;5074434;28;20916;-91
2023/10/22 08:14:26;;;;;;;1.07;0.33;;;14.70;75.50;;;;;;5076999;28;20468;-92
2023/10/22 08:16:54;;;;;;;1.10;0.47;;;14.70;75.50;;;;;;5078044;28;20482;-90
2023/10/22 08:19:23;;;;;;;1.13;0.50;;;14.80;75.60;;;;;;5077671;28;20423;-92
2023/10/22 08:21:51;;;;;;;1.00;0.30;;;14.70;75.70;;;;;;5074261;28;20441;-88
2023/10/22 08:24:19;;;;;;;1.47;0.40;;;14.80;75.50;;;;;;5073692;28;20467;-89
2023/10/22 08:26:49;;;;;;;0.80;0.30;;;14.70;75.40;;;;;;5073991;28;20433;-87
2023/10/22 08:29:17;;;;;;;0.80;0.30;;;14.80;75.50;;;;;;5073911;28;20462;-89
2023/10/22 08:31:45;;;;;;;1.87;0.70;;;14.70;75.30;;;;;;5073185;28;21016;-91
2023/10/22 08:34:13;;;;;;;0.90;0.40;;;14.70;75.30;;;;;;5072813;28;20531;-88
2023/10/22 08:36:41;;;;;;;0.80;0.30;;;14.80;75.40;;;;;;5073432;28;20799;-85
2023/10/22 08:39:10;;;;;;;0.97;0.40;;;14.80;75.40;;;;;;5073777;28;20537;-90
2023/10/22 08:41:45;;;;;;;0.80;0.37;;;14.70;75.30;;;;;;5073915;28;20436;-87
2023/10/22 08:44:16;;;;;;;0.80;0.30;;;14.70;75.30;;;;;;5056015;28;20523;-86
2023/10/22 08:46:44;;;;;;;0.90;0.30;;;14.70;75.30;;;;;;5073927;28;20436;-87
2023/10/22 08:49:14;;;;;;;0.80;0.40;;;14.70;75.30;;;;;;5073897;28;20455;-85
2023/10/22 08:51:42;;;;;;;0.87;0.47;;;14.70;75.30;;;;;;5073874;28;20968;-88
2023/10/22 08:54:10;;;;;;;1.00;0.47;;;14.70;75.20;;;;;;5073622;28;20457;-87
2023/10/22 08:56:39;;;;;;;0.80;0.40;;;14.70;76.50;;;;;;5073978;28;20508;-86
2023/10/22 08:59:08;;;;;;;0.90;0.40;;;14.70;75.30;;;;;;5073929;28;20499;-86
2023/10/22 09:01:38;;;;;;;0.90;0.40;;;14.70;75.30;;;;;;5074974;28;20439;-86
2023/10/22 09:04:06;;;;;;;1.17;0.40;;;14.70;75.30;;;;;;5077213;28;20793;-87
2023/10/22 09:06:35;;;;;;;0.70;0.30;;;14.70;75.30;;;;;;5078175;28;20444;-87
2023/10/22 09:09:04;;;;;;;0.90;0.30;;;14.70;75.50;;;;;;5089498;28;20871;-89
2023/10/22 09:11:32;;;;;;;0.80;0.37;;;14.70;75.20;;;;;;5114863;28;20451;-88
2023/10/22 09:14:00;;;;;;;0.90;0.40;;;14.70;75.20;;;;;;5114875;28;20506;-87
2023/10/22 09:16:30;;;;;;;0.70;0.30;;;14.70;75.20;;;;;;5114584;28;20450;-87
2023/10/22 09:19:01;;;;;;;4.13;0.60;;;14.70;76.50;;;;;;5089110;28;20434;-85
2023/10/22 09:21:42;;;;;;;2.50;0.67;;;14.70;77.50;;;;;;5081283;28;20445;-86
2023/10/22 09:24:11;;;;;;;0.90;0.50;;;14.70;76.30;;;;;;5097513;28;20472;-88
2023/10/22 09:26:44;;;;;;;0.80;0.40;;;14.70;76.30;;;;;;5114585;28;20443;-85
2023/10/22 09:29:12;;;;;;;1.00;0.40;;;14.70;76.30;;;;;;5097556;28;20429;-89
2023/10/22 09:31:49;;;;;;;1.20;0.50;;;14.70;76.30;;;;;;5106150;28;20416;-86
2023/10/22 09:34:26;;;;;;;0.80;0.30;;;14.70;76.40;;;;;;5075749;28;20447;-87
2023/10/22 09:36:54;;;;;;;3.33;0.40;;;14.70;76.10;;;;;;5076772;28;20408;-89
2023/10/22 09:39:33;;;;;;;1.60;0.50;;;14.70;76.20;;;;;;5075991;28;20496;-85
2023/10/22 09:42:03;;;;;;;1.17;0.50;;;14.70;76.10;;;;;;5076759;28;20873;-86
2023/10/22 09:44:44;;;;;;;1.20;0.40;;;14.70;76.10;;;;;;5076073;28;20522;-89
2023/10/22 09:47:19;;;;;;;0.93;0.33;;;14.70;76.10;;;;;;5076428;28;20426;-85
2023/10/22 09:49:52;;;;;;;0.80;0.33;;;14.70;76.20;;;;;;5075955;28;20466;-85
2023/10/22 09:52:23;;;;;;;1.00;0.63;;;14.70;75.90;;;;;;5080904;28;20772;-86
2023/10/22 09:54:54;;;;;;;1.83;0.57;;;14.70;76.00;;;;;;5112436;28;20473;-88
2023/10/22 09:57:28;;;;;;;1.33;0.50;;;14.70;76.20;;;;;;5103135;28;20516;-89
2023/10/22 10:00:01;;;;;;;1.57;0.40;;;14.70;75.90;;;;;;5074320;28;20468;-86
2023/10/22 10:02:34;;;;;;;0.93;0.37;;;14.70;76.00;;;;;;5081478;28;20436;-85
2023/10/22 10:05:06;;;;;;;0.80;0.40;;;14.70;76.00;;;;;;5054782;28;20529;-86
2023/10/22 10:07:34;;;;;;;1.10;0.47;;;14.70;76.10;;;;;;5076074;28;20490;-89
2023/10/22 10:10:05;;;;;;;0.90;0.40;;;14.70;75.90;;;;;;5092224;28;20555;-85
2023/10/22 10:12:36;;;;;;;0.80;0.30;;;14.70;75.70;;;;;;5076243;28;20451;-90
2023/10/22 10:15:06;;;;;;;2.50;0.37;;;14.70;75.70;;;;;;5075624;28;20853;-85
2023/10/22 10:17:51;;;;;;;1.10;0.50;;;14.70;75.70;;;;;;5076593;28;20432;-87
2023/10/22 10:20:30;;;;;;;0.70;0.30;;;14.70;75.70;;;;;;5092565;28;21010;-87
2023/10/22 10:23:07;;;;;;;0.80;0.40;;;14.70;75.60;;;;;;5092952;28;20415;-87
2023/10/22 10:25:38;;;;;;;0.83;0.30;;;14.70;75.70;;;;;;5075998;28;20492;-87
2023/10/22 10:28:08;;;;;;;0.80;0.30;;;14.70;75.60;;;;;;5077382;28;20436;-88
2023/10/22 10:30:37;;;;;;;1.17;0.33;;;14.70;75.50;;;;;;5073007;28;20969;-89
2023/10/22 10:33:07;;;;;;;0.77;0.30;;;14.70;75.60;;;;;;5072905;28;20434;-86
2023/10/22 10:35:46;;;;;;;0.90;0.40;;;14.70;75.60;;;;;;5072518;28;20557;-85
2023/10/22 10:38:21;;;;;;;1.00;0.40;;;14.70;75.70;;;;;;5073156;28;20492;-86
2023/10/22 10:40:51;;;;;;;2.93;0.40;;;14.70;75.70;;;;;;5071868;28;20462;-89
2023/10/22 10:43:20;;;;;;;1.00;0.40;;;14.70;75.70;;;;;;5073027;28;20474;-88
2023/10/22 10:46:21;;;;;;;0.70;0.30;;;14.70;75.60;;;;;;5072453;28;20465;-88
2023/10/22 10:48:51;;;;;;;0.70;0.30;;;14.70;75.50;;;;;;5072984;28;20516;-91
2023/10/22 10:51:22;;;;;;;0.90;0.33;;;14.70;75.60;;;;;;5072301;28;20671;-90
2023/10/22 10:54:14;;;;;;;0.90;0.40;;;14.70;75.60;;;;;;5073082;28;20911;-86
2023/10/22 10:56:54;;;;;;;0.90;0.40;;;14.70;75.60;;;;;;5073041;28;20445;-86
2023/10/22 10:59:34;;;;;;;0.90;0.50;;;14.70;75.60;;;;;;5083923;28;20431;-87
2023/10/22 11:02:06;;;;;;;0.80;0.30;;;14.70;76.20;;;;;;5106607;28;20455;-90
2023/10/22 11:04:36;;;;;;;1.37;0.40;;;14.70;75.70;;;;;;5104032;28;20513;-88
2023/10/22 11:07:07;;;;;;;0.70;0.30;;;14.70;75.60;;;;;;5105496;28;20515;-89
2023/10/22 11:09:39;;;;;;;0.80;0.30;;;14.70;75.60;;;;;;5080661;28;20458;-88
2023/10/22 11:12:09;;;;;;;1.00;0.50;;;14.70;75.90;;;;;;5074962;28;20801;-87
2023/10/22 11:14:37;;;;;;;0.70;0.30;;;14.70;75.70;;;;;;5104344;28;20482;-92
2023/10/22 11:17:07;;;;;;;0.77;0.30;;;14.70;75.90;;;;;;5084407;28;20525;-93
2023/10/22 11:19:35;;;;;;;0.97;0.43;;;14.70;75.70;;;;;;5078595;28;20473;-91
2023/10/22 11:22:09;;;;;;;0.77;0.33;;;14.70;76.50;;;;;;5071608;28;20471;-89
2023/10/22 11:24:37;;;;;;;0.90;0.40;;;14.60;76.00;;;;;;5075825;28;20520;-86
2023/10/22 11:27:06;;;;;;;1.20;0.50;;;14.70;76.00;;;;;;5073484;28;20421;-86
2023/10/22 11:29:40;;;;;;;0.80;0.37;;;14.70;76.30;;;;;;5064628;28;20496;-88
2023/10/22 11:32:12;;;;;;;1.10;0.40;;;14.70;76.40;;;;;;5054749;28;20428;-91
2023/10/22 11:34:48;;;;;;;0.87;0.33;;;14.70;76.10;;;;;;5053853;28;20464;-85
2023/10/22 11:37:21;;;;;;;0.80;0.40;;;14.70;76.10;;;;;;5054811;28;21208;-88
2023/10/22 11:39:49;;;;;;;0.80;0.37;;;14.70;76.00;;;;;;5053907;28;20465;-87
2023/10/22 11:42:17;;;;;;;0.77;0.40;;;14.70;75.80;;;;;;5054776;28;20925;-86
2023/10/22 11:44:46;;;;;;;0.80;0.30;;;14.70;75.70;;;;;;5054015;28;20840;-86
2023/10/22 11:47:25;;;;;;;0.90;0.40;;;14.70;75.80;;;;;;5037489;28;20960;-87
2023/10/22 11:49:54;;;;;;;1.17;0.50;;;14.70;77.00;;;;;;5055316;28;21117;-87
2023/10/22 11:52:49;;;;;;;0.90;0.40;;;14.70;76.70;;;;;;5054863;28;20422;-89
2023/10/22 11:55:17;;;;;;;2.30;0.50;;;14.70;76.30;;;;;;5054638;28;20482;-88
2023/10/22 11:58:03;;;;;;;0.80;0.40;;;14.70;77.70;;;;;;5055157;28;20425;-87
2023/10/22 12:00:32;;;;;;;0.93;0.40;;;14.70;76.20;;;;;;5054179;28;20501;-87
2023/10/22 12:03:00;;;;;;;1.00;0.40;;;14.70;76.30;;;;;;5054608;28;20440;-87
2023/10/22 12:05:28;;;;;;;0.90;0.50;;;14.70;77.00;;;;;;5054090;28;20476;-88
2023/10/22 12:07:58;;;;;;;1.10;0.43;;;14.60;77.50;;;;;;5054872;28;20465;-91
2023/10/22 12:10:26;;;;;;;0.70;0.30;;;14.70;78.90;;;;;;5053905;28;20925;-86
2023/10/22 12:12:57;;;;;;;1.23;0.30;;;14.70;77.30;;;;;;5055395;28;20790;-89
2023/10/22 12:15:26;;;;;;;1.70;0.80;;;14.70;77.10;;;;;;5053796;28;20505;-87
2023/10/22 12:17:55;;;;;;;0.97;0.70;;;14.70;77.80;;;;;;5055244;28;20483;-86
2023/10/22 12:20:23;;;;;;;0.90;0.50;;;14.70;77.80;;;;;;5053384;28;20466;-87
2023/10/22 12:22:52;;;;;;;1.27;0.70;;;14.70;77.80;;;;;;5054906;28;20780;-90
2023/10/22 12:25:22;;;;;;;0.97;0.40;;;14.70;77.70;;;;;;5053829;28;20995;-86
2023/10/22 12:27:50;;;;;;;0.80;0.40;;;14.70;77.40;;;;;;5054713;28;20512;-88
2023/10/22 12:30:19;;;;;;;1.07;0.43;;;14.70;76.80;;;;;;5074882;28;20696;-85
2023/10/22 12:32:47;;;;;;;0.97;0.50;;;14.70;78.80;;;;;;5112441;28;20534;-90
2023/10/22 12:35:16;;;;;;;1.73;0.70;;;14.60;77.90;;;;;;5093893;28;20471;-87
2023/10/22 12:37:44;;;;;;;1.40;0.53;;;14.70;78.50;;;;;;5094193;28;20793;-88
2023/10/22 12:40:13;;;;;;;1.27;0.40;;;14.70;77.90;;;;;;5093425;28;20526;-87
2023/10/22 12:42:43;;;;;;;1.03;0.40;;;14.60;78.10;;;;;;5110989;28;20723;-89
2023/10/22 12:45:11;;;;;;;0.83;0.33;;;14.70;78.70;;;;;;5093199;28;20477;-88
2023/10/22 12:47:40;;;;;;;0.90;0.50;;;14.70;78.30;;;;;;5111067;28;20839;-87
2023/10/22 12:50:09;;;;;;;1.10;0.60;;;14.70;78.00;;;;;;5093629;28;20525;-87
2023/10/22 12:52:38;;;;;;;2.60;0.50;;;14.70;78.10;;;;;;5110777;28;20412;-85
2023/10/22 12:55:07;;;;;;;1.40;0.70;;;14.70;78.40;;;;;;5110001;28;21048;-86
2023/10/22 12:57:35;;;;;;;0.80;0.40;;;14.60;78.80;;;;;;5110414;28;20986;-88
2023/10/22 13:00:11;;;;;;;1.57;0.50;;;14.70;79.00;;;;;;5093018;28;20490;-90
2023/10/22 13:02:40;;;;;;;0.90;0.40;;;14.60;78.60;;;;;;5093898;28;20414;-87